createdAt,value
2022-08-20T00:01:10.580Z,20.00
2022-08-20T00:03:40.567Z,20.00
2022-08-20T00:06:10.973Z,19.90
2022-08-20T00:08:43.231Z,19.90
2022-08-20T00:11:12.349Z,19.80
2022-08-20T00:13:43.496Z,19.80
2022-08-20T00:16:11.788Z,19.70
2022-08-20T00:18:42.356Z,19.70
2022-08-20T00:21:19.150Z,19.60
2022-08-20T00:23:49.275Z,19.60
2022-08-20T00:26:17.412Z,19.50
2022-08-20T00:28:44.610Z,19.60
2022-08-20T00:31:18.195Z,19.60
2022-08-20T00:33:45.454Z,19.50
2022-08-20T00:36:12.482Z,19.50
2022-08-20T00:38:41.991Z,19.50
2022-08-20T00:41:12.924Z,19.40
2022-08-20T00:43:41.661Z,19.50
2022-08-20T00:46:13.375Z,19.50
2022-08-20T00:48:43.749Z,19.40
2022-08-20T00:51:27.299Z,19.40
2022-08-20T00:54:02.524Z,19.40
2022-08-20T00:56:33.500Z,19.40
2022-08-20T00:59:01.561Z,19.30
2022-08-20T01:01:29.140Z,19.30
2022-08-20T01:03:56.749Z,19.30
2022-08-20T01:06:25.327Z,19.20
2022-08-20T01:08:52.813Z,19.20
2022-08-20T01:11:22.777Z,19.20
2022-08-20T01:13:51.061Z,19.20
2022-08-20T01:18:48.493Z,19.20
2022-08-20T01:21:21.184Z,19.20
2022-08-20T01:24:02.979Z,19.20
2022-08-20T01:26:43.042Z,19.20
2022-08-20T01:29:35.616Z,19.10
2022-08-20T01:32:03.132Z,19.00
2022-08-20T01:34:30.324Z,19.00
2022-08-20T01:36:58.460Z,19.00
2022-08-20T01:39:31.964Z,19.00
2022-08-20T01:42:58.834Z,19.00
2022-08-20T01:45:28.311Z,19.00
2022-08-20T01:47:58.069Z,19.00
2022-08-20T01:50:28.871Z,19.00
2022-08-20T01:53:16.843Z,18.90
2022-08-20T01:55:44.190Z,19.00
2022-08-20T01:58:11.215Z,18.90
2022-08-20T02:00:38.205Z,18.90
2022-08-20T02:03:05.339Z,18.90
2022-08-20T02:05:33.515Z,18.90
2022-08-20T02:08:00.828Z,18.90
2022-08-20T02:10:31.777Z,18.90
2022-08-20T02:13:00.553Z,18.90
2022-08-20T02:15:34.760Z,18.90
2022-08-20T02:18:12.147Z,18.80
2022-08-20T02:20:40.667Z,18.90
2022-08-20T02:23:08.758Z,18.80
2022-08-20T02:25:38.205Z,18.90
2022-08-20T02:28:30.126Z,18.80
2022-08-20T02:30:57.259Z,18.80
2022-08-20T02:33:24.680Z,18.80
2022-08-20T02:35:53.107Z,18.80
2022-08-20T02:38:20.065Z,18.70
2022-08-20T02:40:49.046Z,18.80
2022-08-20T02:43:18.426Z,18.70
2022-08-20T02:45:45.920Z,18.80
2022-08-20T02:48:20.979Z,18.80
2022-08-20T02:50:54.338Z,18.70
2022-08-20T02:53:22.521Z,18.70
2022-08-20T02:55:50.053Z,18.70
2022-08-20T02:58:17.656Z,18.70
2022-08-20T03:00:45.267Z,18.70
2022-08-20T03:03:14.173Z,18.70
2022-08-20T03:05:44.311Z,18.80
2022-08-20T03:08:13.451Z,18.70
2022-08-20T03:10:43.582Z,18.70
2022-08-20T03:13:12.619Z,18.60
2022-08-20T03:15:56.600Z,18.70
2022-08-20T03:18:27.756Z,18.60
2022-08-20T03:20:54.722Z,18.60
2022-08-20T03:23:22.593Z,18.70
2022-08-20T03:25:49.769Z,18.70
2022-08-20T03:28:28.890Z,18.60
2022-08-20T03:30:56.910Z,18.60
2022-08-20T03:33:24.134Z,18.60
2022-08-20T03:35:51.331Z,18.60
2022-08-20T03:38:32.841Z,18.60
2022-08-20T03:41:01.968Z,18.70
2022-08-20T03:43:29.934Z,18.70
2022-08-20T03:45:57.079Z,18.80
2022-08-20T03:48:24.147Z,18.80
2022-08-20T03:50:51.430Z,18.90
2022-08-20T03:53:19.118Z,19.20
2022-08-20T03:55:54.042Z,19.50
2022-08-20T03:58:30.074Z,19.90
2022-08-20T04:01:05.498Z,20.30
2022-08-20T04:03:32.521Z,20.50
2022-08-20T04:05:59.762Z,20.80
2022-08-20T04:08:29.568Z,21.00
2022-08-20T04:10:57.833Z,21.20
2022-08-20T04:13:26.331Z,21.50
2022-08-20T04:15:55.672Z,21.70
2022-08-20T04:18:25.784Z,21.90
2022-08-20T04:20:53.646Z,22.00
2022-08-20T04:23:21.411Z,22.30
2022-08-20T04:25:49.329Z,22.60
2022-08-20T04:28:27.267Z,22.90
2022-08-20T04:30:56.112Z,23.20
2022-08-20T04:33:35.342Z,23.40
2022-08-20T04:36:05.809Z,23.50
2022-08-20T04:38:49.880Z,23.80
2022-08-20T04:41:22.764Z,23.90
2022-08-20T04:43:53.185Z,24.10
2022-08-20T04:46:21.393Z,24.30
2022-08-20T04:48:48.674Z,24.50
2022-08-20T04:51:16.229Z,24.70
2022-08-20T04:53:43.259Z,25.00
2022-08-20T04:56:10.379Z,25.00
2022-08-20T04:58:39.924Z,25.00
2022-08-20T05:01:11.220Z,25.10
2022-08-20T05:03:40.550Z,25.20
2022-08-20T05:06:10.809Z,25.50
2022-08-20T05:08:39.311Z,25.70
2022-08-20T05:11:35.936Z,25.90
2022-08-20T05:13:56.560Z,25.90
2022-08-20T05:16:24.629Z,25.80
2022-08-20T05:18:52.489Z,25.60
2022-08-20T05:21:21.225Z,25.50
2022-08-20T05:23:49.556Z,25.60
2022-08-20T05:26:19.983Z,25.50
2022-08-20T05:28:57.951Z,25.60
2022-08-20T05:31:32.093Z,25.90
2022-08-20T05:34:11.080Z,26.40
2022-08-20T05:36:50.809Z,26.70
2022-08-20T05:39:22.017Z,26.90
2022-08-20T05:41:51.426Z,26.90
2022-08-20T05:44:19.586Z,27.00
2022-08-20T05:46:47.890Z,26.90
2022-08-20T05:49:20.196Z,26.70
2022-08-20T05:51:48.308Z,26.70
2022-08-20T05:54:15.740Z,26.70
2022-08-20T05:56:43.560Z,26.60
2022-08-20T05:59:11.035Z,26.30
2022-08-20T06:01:39.458Z,26.50
2022-08-20T06:04:26.825Z,26.90
2022-08-20T06:07:02.152Z,27.40
2022-08-20T06:09:31.734Z,27.70
2022-08-20T06:12:09.509Z,27.60
2022-08-20T06:14:36.633Z,27.30
2022-08-20T06:17:06.461Z,27.20
2022-08-20T06:19:34.307Z,27.20
2022-08-20T06:22:02.585Z,27.10
2022-08-20T06:24:44.922Z,27.00
2022-08-20T06:27:15.468Z,26.90
2022-08-20T06:29:42.950Z,26.90
2022-08-20T06:32:09.987Z,26.80
2022-08-20T06:34:37.222Z,26.60
2022-08-20T06:37:18.136Z,26.40
2022-08-20T06:39:45.400Z,26.50
2022-08-20T06:42:12.378Z,26.50
2022-08-20T06:44:42.110Z,26.50
2022-08-20T06:47:09.572Z,26.60
2022-08-20T06:49:37.147Z,26.80
2022-08-20T06:52:05.492Z,26.90
2022-08-20T06:54:34.440Z,27.30
2022-08-20T06:57:02.277Z,27.60
2022-08-20T06:59:29.318Z,27.90
2022-08-20T07:01:56.663Z,27.70
2022-08-20T07:04:26.054Z,27.70
2022-08-20T07:06:54.221Z,27.60
2022-08-20T07:09:21.938Z,27.60
2022-08-20T07:11:49.354Z,27.70
2022-08-20T07:14:18.439Z,27.50
2022-08-20T07:16:47.224Z,27.50
2022-08-20T07:19:14.803Z,27.60
2022-08-20T07:21:41.865Z,28.00
2022-08-20T07:24:09.830Z,28.30
2022-08-20T07:26:36.972Z,28.30
2022-08-20T07:29:04.408Z,28.40
2022-08-20T07:31:50.019Z,28.40
2022-08-20T07:34:17.070Z,28.30
2022-08-20T07:36:48.510Z,28.20
2022-08-20T07:39:15.562Z,27.80
2022-08-20T07:41:56.637Z,27.60
2022-08-20T07:44:29.174Z,27.70
2022-08-20T07:47:01.534Z,27.70
2022-08-20T07:49:30.087Z,27.80
2022-08-20T07:51:57.030Z,27.70
2022-08-20T07:54:24.332Z,27.80
2022-08-20T07:56:51.273Z,27.90
2022-08-20T07:59:18.367Z,27.90
2022-08-20T08:01:45.355Z,27.80
2022-08-20T08:04:12.269Z,27.60
2022-08-20T08:06:40.666Z,27.40
2022-08-20T08:09:11.547Z,27.30
2022-08-20T08:11:46.399Z,27.10
2022-08-20T08:14:15.194Z,26.90
2022-08-20T08:16:45.747Z,26.70
2022-08-20T08:19:16.518Z,26.70
2022-08-20T08:21:44.427Z,26.60
2022-08-20T08:24:15.480Z,26.60
2022-08-20T08:26:46.504Z,26.70
2022-08-20T08:29:13.620Z,26.60
2022-08-20T08:31:41.374Z,26.50
2022-08-20T08:34:09.163Z,26.50
2022-08-20T08:36:36.107Z,26.40
2022-08-20T08:39:03.135Z,26.40
2022-08-20T08:41:32.168Z,26.30
2022-08-20T08:44:10.629Z,26.20
2022-08-20T08:46:44.720Z,26.00
2022-08-20T08:49:18.730Z,26.00
2022-08-20T08:51:50.645Z,25.90
2022-08-20T08:54:22.281Z,25.90
2022-08-20T08:56:50.174Z,25.90
2022-08-20T08:59:19.836Z,25.90
2022-08-20T09:01:56.986Z,25.90
2022-08-20T09:04:32.697Z,25.90
2022-08-20T09:07:01.819Z,25.80
2022-08-20T09:09:32.958Z,25.80
2022-08-20T09:12:07.526Z,25.70
2022-08-20T09:14:34.745Z,25.70
2022-08-20T09:17:01.940Z,25.80
2022-08-20T09:19:28.968Z,25.80
2022-08-20T09:21:56.590Z,25.90
2022-08-20T09:24:23.744Z,25.90
2022-08-20T09:26:50.899Z,26.00
2022-08-20T09:29:17.933Z,26.10
2022-08-20T09:31:45.236Z,26.10
2022-08-20T09:34:13.851Z,26.20
2022-08-20T09:36:40.835Z,26.30
2022-08-20T09:39:07.862Z,26.30
2022-08-20T09:41:34.870Z,26.30
2022-08-20T09:44:02.507Z,26.30
2022-08-20T09:46:29.487Z,26.50
2022-08-20T09:48:56.420Z,26.60
2022-08-20T09:51:23.676Z,26.50
2022-08-20T09:53:51.085Z,26.30
2022-08-20T09:56:18.496Z,26.40
2022-08-20T09:58:50.301Z,26.50
2022-08-20T10:01:18.992Z,26.70
2022-08-20T10:03:50.274Z,26.70
2022-08-20T10:06:20.402Z,26.70
2022-08-20T10:08:48.743Z,26.80
2022-08-20T10:11:16.434Z,26.70
2022-08-20T10:13:46.302Z,26.60
2022-08-20T10:16:13.746Z,26.60
2022-08-20T10:18:40.759Z,26.50
2022-08-20T10:21:12.153Z,26.20
2022-08-20T10:23:39.178Z,25.90
2022-08-20T10:26:08.324Z,25.60
2022-08-20T10:28:36.055Z,25.50
2022-08-20T10:31:05.486Z,25.50
2022-08-20T10:33:33.507Z,25.60
2022-08-20T10:36:07.606Z,25.70
2022-08-20T10:38:34.537Z,25.70
2022-08-20T10:41:01.562Z,25.90
2022-08-20T10:43:28.477Z,26.30
2022-08-20T10:45:55.545Z,26.60
2022-08-20T10:48:22.824Z,26.90
2022-08-20T10:50:50.346Z,27.00
2022-08-20T10:53:17.865Z,27.00
2022-08-20T10:55:44.967Z,27.00
2022-08-20T10:58:13.293Z,26.90
2022-08-20T11:00:41.254Z,26.80
2022-08-20T11:03:08.478Z,26.70
2022-08-20T11:05:35.440Z,26.80
2022-08-20T11:08:04.350Z,26.90
2022-08-20T11:10:34.152Z,27.00
2022-08-20T11:13:06.496Z,27.10
2022-08-20T11:15:37.934Z,27.10
2022-08-20T11:18:05.986Z,27.10
2022-08-20T11:20:33.140Z,27.00
2022-08-20T11:23:00.322Z,26.90
2022-08-20T11:25:28.239Z,26.90
2022-08-20T11:27:57.126Z,26.70
2022-08-20T11:30:35.689Z,26.70
2022-08-20T11:33:03.298Z,26.80
2022-08-20T11:35:49.966Z,26.90
2022-08-20T11:38:18.868Z,26.80
2022-08-20T11:40:47.059Z,26.70
2022-08-20T11:43:16.159Z,26.60
2022-08-20T11:45:45.538Z,26.70
2022-08-20T11:48:12.464Z,27.00
2022-08-20T11:50:39.464Z,27.10
2022-08-20T11:53:06.417Z,27.00
2022-08-20T11:55:35.460Z,27.00
2022-08-20T11:58:02.528Z,27.00
2022-08-20T12:00:32.311Z,26.80
2022-08-20T12:03:01.047Z,26.70
2022-08-20T12:05:29.967Z,26.60
2022-08-20T12:08:00.016Z,26.50
2022-08-20T12:10:28.254Z,26.30
2022-08-20T12:12:56.798Z,26.30
2022-08-20T12:15:25.439Z,26.30
2022-08-20T12:17:52.680Z,26.10
2022-08-20T12:20:19.689Z,25.90
2022-08-20T12:22:46.905Z,25.80
2022-08-20T12:25:13.916Z,25.90
2022-08-20T12:27:42.027Z,25.90
2022-08-20T12:30:13.198Z,26.10
2022-08-20T12:32:40.481Z,26.20
2022-08-20T12:35:08.533Z,26.20
2022-08-20T12:37:36.242Z,26.10
2022-08-20T12:40:06.562Z,26.10
2022-08-20T12:42:33.797Z,26.10
2022-08-20T12:45:01.448Z,26.10
2022-08-20T12:47:34.875Z,26.10
2022-08-20T12:50:06.510Z,25.90
2022-08-20T12:52:34.561Z,25.90
2022-08-20T12:55:02.403Z,25.90
2022-08-20T12:57:38.638Z,25.80
2022-08-20T13:00:16.427Z,25.80
2022-08-20T13:02:43.647Z,25.50
2022-08-20T13:05:12.437Z,25.40
2022-08-20T13:07:40.797Z,25.40
2022-08-20T13:10:09.973Z,25.50
2022-08-20T13:12:37.218Z,25.60
2022-08-20T13:15:05.287Z,25.50
2022-08-20T13:17:39.127Z,25.50
2022-08-20T13:20:14.964Z,25.60
2022-08-20T13:22:42.530Z,25.60
2022-08-20T13:25:11.420Z,25.60
2022-08-20T13:27:40.401Z,25.70
2022-08-20T13:30:09.201Z,25.90
2022-08-20T13:32:36.282Z,26.00
2022-08-20T13:35:03.537Z,26.10
2022-08-20T13:37:30.950Z,26.00
2022-08-20T13:39:59.723Z,25.80
2022-08-20T13:42:27.558Z,25.70
2022-08-20T13:44:55.105Z,25.60
2022-08-20T13:47:28.491Z,25.50
2022-08-20T13:50:01.310Z,25.50
2022-08-20T13:52:28.227Z,25.60
2022-08-20T13:54:55.344Z,25.80
2022-08-20T13:57:24.897Z,25.90
2022-08-20T13:59:55.285Z,26.00
2022-08-20T14:02:23.356Z,26.00
2022-08-20T14:05:05.223Z,26.10
2022-08-20T14:07:36.945Z,26.30
2022-08-20T14:10:09.641Z,26.30
2022-08-20T14:12:37.692Z,26.40
2022-08-20T14:15:06.188Z,26.50
2022-08-20T14:17:39.486Z,26.40
2022-08-20T14:20:13.456Z,26.20
2022-08-20T14:22:40.798Z,25.90
2022-08-20T14:25:09.211Z,25.60
2022-08-20T14:27:36.269Z,25.40
2022-08-20T14:30:08.343Z,25.10
2022-08-20T14:32:35.676Z,25.00
2022-08-20T14:35:03.090Z,25.00
2022-08-20T14:37:33.005Z,24.90
2022-08-20T14:40:01.585Z,24.80
2022-08-20T14:42:30.582Z,24.80
2022-08-20T14:44:59.075Z,24.80
2022-08-20T14:47:27.819Z,24.80
2022-08-20T14:50:01.998Z,24.80
2022-08-20T14:52:29.757Z,24.80
2022-08-20T14:54:57.238Z,24.80
2022-08-20T14:57:24.214Z,24.80
2022-08-20T14:59:53.558Z,24.70
2022-08-20T15:02:20.584Z,24.70
2022-08-20T15:07:38.636Z,24.20
2022-08-20T15:10:10.147Z,24.10
2022-08-20T15:12:37.180Z,24.20
2022-08-20T15:15:15.372Z,24.20
2022-08-20T15:17:51.933Z,24.20
2022-08-20T15:20:22.745Z,24.20
2022-08-20T15:22:49.954Z,24.20
2022-08-20T15:25:19.915Z,24.10
2022-08-20T15:27:47.678Z,24.10
2022-08-20T15:30:19.425Z,24.00
2022-08-20T15:32:47.773Z,23.90
2022-08-20T15:35:16.777Z,23.90
2022-08-20T15:37:48.079Z,23.90
2022-08-20T15:40:19.410Z,23.90
2022-08-20T15:42:46.922Z,23.80
2022-08-20T15:45:21.754Z,23.80
2022-08-20T15:47:59.954Z,23.70
2022-08-20T15:50:35.280Z,23.60
2022-08-20T15:53:10.880Z,23.60
2022-08-20T15:55:43.934Z,23.50
2022-08-20T15:58:18.662Z,23.50
2022-08-20T16:01:24.738Z,23.40
2022-08-20T16:03:58.269Z,23.30
2022-08-20T16:06:30.585Z,23.30
2022-08-20T16:09:06.802Z,23.30
2022-08-20T16:11:45.461Z,23.20
2022-08-20T16:14:43.766Z,23.20
2022-08-20T16:17:24.441Z,23.10
2022-08-20T16:20:24.887Z,23.10
2022-08-20T16:23:00.267Z,23.00
2022-08-20T16:25:33.730Z,23.00
2022-08-20T16:28:09.793Z,23.00
2022-08-20T16:30:36.647Z,23.00
2022-08-20T16:33:09.756Z,22.90
2022-08-20T16:35:52.990Z,22.80
2022-08-20T16:38:45.958Z,22.80
2022-08-20T16:41:23.375Z,22.70
2022-08-20T16:44:01.394Z,22.60
2022-08-20T16:46:37.824Z,22.60
2022-08-20T16:49:13.425Z,22.60
2022-08-20T16:51:47.151Z,22.50
2022-08-20T16:54:18.104Z,22.40
2022-08-20T16:57:04.849Z,22.40
2022-08-20T16:59:32.589Z,22.30
2022-08-20T17:02:10.503Z,22.20
2022-08-20T17:04:59.427Z,22.10
2022-08-20T17:07:52.936Z,22.10
2022-08-20T17:10:36.301Z,22.00
2022-08-20T17:13:15.455Z,21.90
2022-08-20T17:15:53.211Z,21.90
2022-08-20T17:18:22.043Z,21.80
2022-08-20T17:20:49.150Z,21.70
2022-08-20T17:23:19.183Z,21.60
2022-08-20T17:26:00.073Z,21.60
2022-08-20T17:28:26.955Z,21.50
2022-08-20T17:30:55.163Z,21.40
2022-08-20T17:33:36.874Z,21.40
2022-08-20T17:36:18.798Z,21.40
2022-08-20T17:38:57.385Z,21.30
2022-08-20T17:41:33.770Z,21.20
2022-08-20T17:44:06.735Z,21.20
2022-08-20T17:46:41.670Z,21.10
2022-08-20T17:49:11.716Z,21.10
2022-08-20T17:51:44.791Z,21.00
2022-08-20T17:54:19.250Z,20.90
2022-08-20T17:56:46.257Z,20.90
2022-08-20T18:00:01.175Z,20.80
2022-08-20T18:02:14.806Z,20.80
2022-08-20T18:04:42.514Z,20.70
2022-08-20T18:07:24.056Z,20.70
2022-08-20T18:10:03.138Z,20.60
2022-08-20T18:12:39.228Z,20.60
2022-08-20T18:15:19.277Z,20.60
2022-08-20T18:18:07.429Z,20.50
2022-08-20T18:21:03.873Z,20.40
2022-08-20T18:23:55.211Z,20.40
2022-08-20T18:26:27.203Z,20.30
2022-08-20T18:29:11.093Z,20.30
2022-08-20T18:31:49.966Z,20.30
2022-08-20T18:34:33.781Z,20.20
2022-08-20T18:37:31.160Z,20.20
2022-08-20T18:40:24.942Z,20.10
2022-08-20T18:42:51.941Z,20.00
2022-08-20T18:45:33.783Z,19.90
2022-08-20T18:48:02.550Z,19.90
2022-08-20T18:50:46.674Z,19.80
2022-08-20T18:53:16.971Z,19.70
2022-08-20T18:56:09.054Z,19.70
2022-08-20T18:58:58.515Z,19.80
2022-08-20T19:01:26.072Z,19.70
2022-08-20T19:03:55.681Z,19.80
2022-08-20T19:06:31.423Z,19.80
2022-08-20T19:09:06.275Z,19.70
2022-08-20T19:12:08.942Z,19.70
2022-08-20T19:14:58.675Z,19.70
2022-08-20T19:17:35.254Z,19.60
2022-08-20T19:20:10.556Z,19.60
2022-08-20T19:22:39.727Z,19.60
2022-08-20T19:25:07.446Z,19.60
2022-08-20T19:27:34.731Z,19.50
2022-08-20T19:30:02.550Z,19.50
2022-08-20T19:32:31.984Z,19.50
2022-08-20T19:38:04.242Z,19.40
2022-08-20T19:40:40.104Z,19.30
2022-08-20T19:43:18.986Z,19.30
2022-08-20T19:45:54.452Z,19.20
2022-08-20T19:48:33.465Z,19.20
2022-08-20T19:51:22.614Z,19.20
2022-08-20T19:53:49.987Z,19.20
2022-08-20T19:56:21.102Z,19.30
2022-08-20T19:59:09.739Z,19.20
2022-08-20T20:01:37.171Z,19.20
2022-08-20T20:04:15.232Z,19.10
2022-08-20T20:06:46.018Z,19.10
2022-08-20T20:09:27.668Z,19.10
2022-08-20T20:12:02.717Z,19.10
2022-08-20T20:14:32.942Z,19.10
2022-08-20T20:17:00.362Z,19.10
2022-08-20T20:19:28.443Z,19.00
2022-08-20T20:22:19.413Z,19.00
2022-08-20T20:24:57.703Z,18.90
2022-08-20T20:27:27.670Z,18.90
2022-08-20T20:30:12.168Z,18.80
2022-08-20T20:32:47.147Z,18.80
2022-08-20T20:35:18.672Z,18.80
2022-08-20T20:37:56.114Z,18.60
2022-08-20T20:40:30.643Z,18.60
2022-08-20T20:43:07.790Z,18.60
2022-08-20T20:45:54.680Z,18.60
2022-08-20T20:48:25.350Z,18.60
2022-08-20T20:50:56.338Z,18.50
2022-08-20T20:53:48.428Z,18.50
2022-08-20T20:56:32.598Z,18.60
2022-08-20T20:59:05.927Z,18.60
2022-08-20T21:01:49.114Z,18.60
2022-08-20T21:04:19.251Z,18.60
2022-08-20T21:06:46.403Z,18.50
2022-08-20T21:09:13.863Z,18.50
2022-08-20T21:11:40.835Z,18.40
2022-08-20T21:14:07.877Z,18.40
2022-08-20T21:16:34.863Z,18.40
2022-08-20T21:19:06.024Z,18.40
2022-08-20T21:21:33.324Z,18.30
2022-08-20T21:24:00.377Z,18.30
2022-08-20T21:26:28.497Z,18.30
2022-08-20T21:28:56.090Z,18.30
2022-08-20T21:31:30.357Z,18.30
2022-08-20T21:33:57.346Z,18.30
2022-08-20T21:36:24.347Z,18.30
2022-08-20T21:38:51.488Z,18.30
2022-08-20T21:41:19.029Z,18.20
2022-08-20T21:43:56.756Z,18.20
2022-08-20T21:46:24.825Z,18.20
2022-08-20T21:48:52.099Z,18.20
2022-08-20T21:51:19.086Z,18.10
2022-08-20T21:53:46.038Z,18.00
2022-08-20T21:56:13.047Z,17.90
2022-08-20T21:58:40.235Z,17.90
2022-08-20T22:01:07.902Z,17.90
2022-08-20T22:03:38.899Z,18.00
2022-08-20T22:06:10.377Z,18.00
2022-08-20T22:08:37.414Z,18.00
2022-08-20T22:13:52.449Z,18.00
2022-08-20T22:16:21.407Z,18.00
2022-08-20T22:18:49.598Z,18.00
2022-08-20T22:21:23.252Z,18.00
2022-08-20T22:23:51.609Z,18.00
2022-08-20T22:26:20.684Z,18.00
2022-08-20T22:28:51.061Z,17.90
2022-08-20T22:31:22.533Z,17.90
2022-08-20T22:33:49.455Z,17.90
2022-08-20T22:36:16.959Z,17.80
2022-08-20T22:38:44.132Z,17.80
2022-08-20T22:41:14.246Z,17.80
2022-08-20T22:43:46.241Z,17.80
2022-08-20T22:46:27.034Z,17.80
2022-08-20T22:48:54.785Z,17.80
2022-08-20T22:51:26.851Z,17.80
2022-08-20T22:53:53.791Z,17.70
2022-08-20T22:56:21.737Z,17.70
2022-08-20T22:58:50.119Z,17.60
2022-08-20T23:01:18.759Z,17.60
2022-08-20T23:03:46.127Z,17.60
2022-08-20T23:06:13.829Z,17.60
2022-08-20T23:08:42.145Z,17.60
2022-08-20T23:13:58.046Z,17.60
2022-08-20T23:16:25.721Z,17.60
2022-08-20T23:18:52.867Z,17.50
2022-08-20T23:21:19.839Z,17.50
2022-08-20T23:23:47.081Z,17.40
2022-08-20T23:26:20.932Z,17.40
2022-08-20T23:28:48.532Z,17.30
2022-08-20T23:31:15.525Z,17.40
2022-08-20T23:33:44.792Z,17.40
2022-08-20T23:36:14.420Z,17.30
2022-08-20T23:38:41.462Z,17.40
2022-08-20T23:41:08.450Z,17.40
2022-08-20T23:43:35.785Z,17.40
2022-08-20T23:46:05.810Z,17.40
2022-08-20T23:48:32.893Z,17.40
2022-08-20T23:50:59.941Z,17.40
2022-08-20T23:53:26.909Z,17.40
2022-08-20T23:55:53.945Z,17.40
2022-08-20T23:58:20.910Z,17.40
